| time (UTC) | temp F | wind direction | speed MPH | gust MPH | rain 1hr in | rain 24hr in | rain mn in | humidity % | barometer mb |
| 20260502170312 | 57 | 34 | 0.0 | 0.0 | 0.00 | 0.00 | 0.00 | 96 | 1013.7 |
| 20260502164256 | 0 | 0.0 | 0.0 | 0.00 | 0.00 | 0.00 | 1013.7 | ||
| 20260502160648 | 56 | 5 | 0.0 | 0.0 | 0.00 | 0.00 | 0.00 | 96 | 1013.8 |
| 20260502160630 | 56 | 5 | 0.0 | 0.0 | 0.00 | 0.00 | 0.00 | 96 | 1013.8 |
| 20260502152054 | 56 | 252 | 0.0 | 0.0 | 0.00 | 0.00 | 0.00 | 96 | 1013.8 |
| 20260502151550 | 56 | 252 | 0.0 | 3.0 | 0.00 | 0.00 | 0.00 | 96 | 1013.8 |
| 20260502151042 | 56 | 252 | 0.0 | 3.0 | 0.00 | 0.00 | 0.00 | 96 | 1013.7 |
| 20260502150536 | 56 | 252 | 0.0 | 3.0 | 0.00 | 0.00 | 0.00 | 96 | 1013.7 |
| 20260502130312 | 56 | 239 | 0.0 | 4.0 | 0.00 | 0.00 | 0.00 | 96 | 1012.9 |
| 20260502123742 | 56 | 246 | 0.0 | 0.0 | 0.00 | 0.00 | 0.00 | 96 | 1012.7 |
| 20260502123507 | 56 | 246 | 0.0 | 0.0 | 0.00 | 0.00 | 0.00 | 96 | 1012.6 |
| 20260502122730 | 56 | 246 | 0.0 | 0.0 | 0.00 | 0.00 | 0.00 | 96 | 1012.5 |
| 20260502122225 | 56 | 246 | 0.0 | 0.0 | 0.00 | 0.00 | 0.00 | 96 | 1012.5 |
| 20260502121718 | 56 | 246 | 0.0 | 0.0 | 0.00 | 0.00 | 0.00 | 96 | 1012.4 |
| 20260502121431 | 56 | 246 | 0.0 | 0.0 | 0.00 | 0.00 | 0.00 | 96 | 1012.5 |
| 20260502120706 | 56 | 246 | 0.0 | 0.0 | 0.00 | 0.00 | 0.00 | 96 | 1012.5 |
| 20260502120201 | 56 | 246 | 0.0 | 0.0 | 0.00 | 0.00 | 0.00 | 96 | 1012.5 |
| 20260502115918 | 56 | 246 | 0.0 | 0.0 | 0.00 | 0.00 | 0.00 | 96 | 1012.5 |
| 20260502115148 | 56 | 246 | 0.0 | 0.0 | 0.00 | 0.00 | 0.00 | 96 | 1012.6 |
| 20260502114903 | 56 | 246 | 0.0 | 0.0 | 0.00 | 0.00 | 0.00 | 96 | 1012.4 |
| 20260502114142 | 56 | 246 | 0.0 | 0.0 | 0.00 | 0.00 | 0.00 | 96 | 1012.5 |
| 20260502113914 | 56 | 246 | 0.0 | 0.0 | 0.00 | 0.00 | 0.00 | 96 | 1012.5 |
| 20260502113402 | 56 | 246 | 0.0 | 0.0 | 0.00 | 0.00 | 0.00 | 96 | 1012.5 |
| 20260502112639 | 56 | 246 | 0.0 | 0.0 | 0.00 | 0.00 | 0.00 | 96 | 1012.5 |
| 20260502112359 | 56 | 246 | 0.0 | 0.0 | 0.00 | 0.00 | 0.00 | 96 | 1012.4 |
| 20260502111633 | 56 | 241 | 0.0 | 0.0 | 0.00 | 0.00 | 0.00 | 96 | 1012.4 |
| 20260502111130 | 55 | 181 | 0.0 | 0.0 | 0.00 | 0.00 | 0.00 | 96 | 1012.4 |
| 20260502110631 | 56 | 173 | 0.0 | 0.0 | 0.00 | 0.00 | 0.00 | 96 | 1012.3 |
| 20260502110128 | 56 | 181 | 0.0 | 0.0 | 0.00 | 0.00 | 0.00 | 96 | 1012.3 |
| 20260502105626 | 56 | 187 | 0.0 | 0.0 | 0.00 | 0.00 | 0.00 | 96 | 1012.3 |
| 20260502105125 | 56 | 241 | 0.0 | 0.0 | 0.00 | 0.00 | 0.00 | 96 | 1012.2 |
| 20260502104622 | 55 | 241 | 0.0 | 1.0 | 0.00 | 0.00 | 0.00 | 96 | 1012.2 |
| 20260502104123 | 55 | 241 | 0.0 | 1.0 | 0.00 | 0.00 | 0.00 | 96 | 1012.2 |
| 20260502103621 | 55 | 182 | 0.0 | 1.0 | 0.00 | 0.00 | 0.00 | 96 | 1012.2 |
| 20260502103123 | 55 | 202 | 0.0 | 1.0 | 0.00 | 0.00 | 0.00 | 96 | 1012.2 |
| 20260502102623 | 55 | 236 | 0.0 | 0.0 | 0.00 | 0.00 | 0.00 | 96 | 1012.2 |
| 20260502102122 | 55 | 236 | 0.0 | 1.0 | 0.00 | 0.00 | 0.00 | 96 | 1012.1 |
| 20260502101623 | 55 | 234 | 0.0 | 1.0 | 0.00 | 0.00 | 0.00 | 96 | 1012.1 |
| 20260502101122 | 55 | 247 | 0.0 | 1.0 | 0.00 | 0.00 | 0.00 | 96 | 1012.1 |
| 20260502100620 | 55 | 226 | 0.0 | 1.0 | 0.00 | 0.00 | 0.00 | 96 | 1012.1 |
| 20260502100116 | 55 | 200 | 0.0 | 0.0 | 0.00 | 0.00 | 0.00 | 96 | 1012.0 |
| 20260502091302 | 55 | 88 | 0.0 | 0.0 | 0.00 | 0.00 | 0.00 | 95 | 1012.0 |
| 20260502090538 | 55 | 90 | 0.0 | 0.0 | 0.00 | 0.00 | 0.00 | 95 | 1012.1 |
| 20260502090258 | 55 | 76 | 0.0 | 0.0 | 0.00 | 0.00 | 0.00 | 95 | 1012.2 |
| 20260502071027 | 56 | 103 | 0.0 | 0.0 | 0.00 | 0.00 | 0.00 | 94 | 1013.0 |
| 20260502070526 | 56 | 103 | 0.0 | 0.0 | 0.00 | 0.00 | 0.00 | 94 | 1012.9 |
| 20260502070028 | 56 | 103 | 0.0 | 0.0 | 0.00 | 0.00 | 0.00 | 94 | 1012.9 |
| 20260502065525 | 56 | 0.0 | 0.0 | 0.00 | 0.00 | 0.00 | 94 | 1012.9 | |
| 20260502065013 | 0 | 0.0 | 0.0 | 0.00 | 0.00 | 0.00 | 1013.0 | ||
| 20260501223951 | 73 | 218 | 2.0 | 9.0 | 0.00 | 0.00 | 0.00 | 59 | 1011.3 |
| 20260501223445 | 73 | 250 | 2.0 | 9.0 | 0.00 | 0.00 | 0.00 | 59 | 1011.4 |
| 20260501222939 | 73 | 230 | 3.0 | 9.0 | 0.00 | 0.00 | 0.00 | 59 | 1011.1 |
| 20260501222433 | 73 | 250 | 2.0 | 9.0 | 0.00 | 0.00 | 0.00 | 58 | 1011.3 |
| 20260501221927 | 73 | 263 | 2.0 | 9.0 | 0.00 | 0.00 | 0.00 | 58 | 1011.4 |
| 20260501221422 | 73 | 242 | 2.0 | 11.0 | 0.00 | 0.00 | 0.00 | 59 | 1011.4 |
| 20260501220915 | 73 | 278 | 3.0 | 11.0 | 0.00 | 0.00 | 0.00 | 59 | 1011.4 |
| 20260501220409 | 72 | 233 | 4.0 | 12.0 | 0.00 | 0.00 | 0.00 | 60 | 1011.5 |
| 20260501215903 | 72 | 293 | 5.0 | 12.0 | 0.00 | 0.00 | 0.00 | 60 | 1011.6 |
| 20260501215358 | 73 | 239 | 3.0 | 12.0 | 0.00 | 0.00 | 0.00 | 58 | 1011.6 |
| 20260501214851 | 73 | 247 | 4.0 | 11.0 | 0.00 | 0.00 | 0.00 | 59 | 1011.6 |
| 20260501214601 | 73 | 233 | 5.0 | 11.0 | 0.00 | 0.00 | 0.00 | 60 | 1011.8 |
| 20260501213840 | 73 | 243 | 5.0 | 11.0 | 0.00 | 0.00 | 0.00 | 59 | 1011.8 |
| 20260501213821 | 73 | 233 | 5.0 | 11.0 | 0.00 | 0.00 | 0.00 | 60 | 1011.9 |
| 20260501212828 | 73 | 231 | 5.0 | 11.0 | 0.00 | 0.00 | 0.00 | 59 | 1012.0 |
| 20260501212326 | 73 | 275 | 5.0 | 11.0 | 0.00 | 0.00 | 0.00 | 59 | 1011.9 |
| 20260501211815 | 73 | 260 | 4.0 | 11.0 | 0.00 | 0.00 | 0.00 | 58 | 1011.8 |
| 20260501211535 | 74 | 243 | 3.0 | 11.0 | 0.00 | 0.00 | 0.00 | 58 | 1011.9 |
| 20260501210803 | 74 | 252 | 3.0 | 10.0 | 0.00 | 0.00 | 0.00 | 57 | 1011.9 |
| 20260501210523 | 74 | 271 | 4.0 | 10.0 | 0.00 | 0.00 | 0.00 | 57 | 1011.9 |
| 20260501205751 | 74 | 291 | 4.0 | 9.0 | 0.00 | 0.00 | 0.00 | 57 | 1011.9 |
| 20260501205245 | 74 | 272 | 3.0 | 9.0 | 0.00 | 0.00 | 0.00 | 56 | 1012.0 |
| 20260501204742 | 74 | 296 | 2.0 | 6.0 | 0.00 | 0.00 | 0.00 | 57 | 1011.9 |
| 20260501204233 | 74 | 216 | 2.0 | 5.0 | 0.00 | 0.00 | 0.00 | 55 | 1012.0 |
| 20260501203727 | 74 | 316 | 1.0 | 6.0 | 0.00 | 0.00 | 0.00 | 55 | 1012.0 |
| 20260501203221 | 74 | 194 | 1.0 | 6.0 | 0.00 | 0.00 | 0.00 | 55 | 1012.0 |
| 20260501202945 | 74 | 31 | 1.0 | 7.0 | 0.00 | 0.00 | 0.00 | 55 | 1011.9 |
| 20260501202209 | 74 | 262 | 0.0 | 7.0 | 0.00 | 0.00 | 0.00 | 57 | 1011.9 |
| 20260501201707 | 73 | 244 | 1.0 | 7.0 | 0.00 | 0.00 | 0.00 | 57 | 1012.0 |
| 20260501201419 | 73 | 254 | 0.0 | 7.0 | 0.00 | 0.00 | 0.00 | 57 | 1012.2 |
| 20260501200651 | 72 | 240 | 0.0 | 4.0 | 0.00 | 0.00 | 0.00 | 59 | 1012.1 |
| 20260501200411 | 71 | 309 | 0.0 | 6.0 | 0.00 | 0.00 | 0.00 | 60 | 1012.2 |
| 20260501195639 | 71 | 293 | 0.0 | 6.0 | 0.00 | 0.00 | 0.00 | 60 | 1012.3 |
| 20260501195133 | 71 | 66 | 1.0 | 6.0 | 0.00 | 0.00 | 0.00 | 61 | 1012.3 |
| 20260501194845 | 71 | 263 | 1.0 | 6.0 | 0.00 | 0.00 | 0.00 | 61 | 1012.3 |
| 20260501194122 | 71 | 252 | 0.0 | 5.0 | 0.00 | 0.00 | 0.00 | 62 | 1012.4 |
| 20260501193615 | 71 | 311 | 1.0 | 5.0 | 0.00 | 0.00 | 0.00 | 62 | 1012.4 |
| 20260501193335 | 71 | 285 | 1.0 | 10.0 | 0.00 | 0.00 | 0.00 | 61 | 1012.4 |
| 20260501192608 | 71 | 263 | 0.0 | 10.0 | 0.00 | 0.00 | 0.00 | 61 | 1012.6 |
| 20260501192057 | 71 | 151 | 2.0 | 10.0 | 0.00 | 0.00 | 0.00 | 62 | 1012.6 |
| 20260501191551 | 70 | 230 | 2.0 | 10.0 | 0.00 | 0.00 | 0.00 | 62 | 1012.8 |
| 20260501191528 | 70 | 259 | 1.0 | 6.0 | 0.00 | 0.00 | 0.00 | 63 | 1012.9 |
| 20260501190539 | 69 | 225 | 1.0 | 7.0 | 0.00 | 0.00 | 0.00 | 65 | 1012.9 |
| 20260501190033 | 69 | 250 | 1.0 | 7.0 | 0.00 | 0.00 | 0.00 | 65 | 1013.0 |
| 20260501185527 | 69 | 159 | 1.0 | 5.0 | 0.00 | 0.00 | 0.00 | 66 | 1013.0 |
| 20260501185021 | 68 | 153 | 1.0 | 5.0 | 0.00 | 0.00 | 0.00 | 66 | 1013.0 |
| 20260501184515 | 67 | 246 | 1.0 | 4.0 | 0.00 | 0.00 | 0.00 | 68 | 1013.0 |
| 20260501184009 | 67 | 5 | 1.0 | 4.0 | 0.00 | 0.00 | 0.00 | 70 | 1013.0 |
| 20260501183504 | 66 | 197 | 0.0 | 3.0 | 0.00 | 0.00 | 0.00 | 69 | 1013.2 |
| 20260501182957 | 66 | 300 | 0.0 | 3.0 | 0.00 | 0.00 | 0.00 | 70 | 1013.3 |
| 20260501182452 | 66 | 309 | 0.0 | 2.0 | 0.00 | 0.00 | 0.00 | 72 | 1013.4 |
| 20260501181945 | 65 | 349 | 0.0 | 5.0 | 0.00 | 0.00 | 0.00 | 74 | 1013.4 |
| 20260501181440 | 64 | 0 | 1.0 | 5.0 | 0.00 | 0.00 | 0.00 | 74 | 1013.3 |
| 20260501180933 | 64 | 300 | 2.0 | 8.0 | 0.00 | 0.00 | 0.00 | 74 | 1013.7 |
| 20260501180655 | 63 | 25 | 2.0 | 8.0 | 0.00 | 0.00 | 0.00 | 76 | 1013.7 |
| 20260501175923 | 63 | 47 | 2.0 | 8.0 | 0.00 | 0.00 | 0.00 | 77 | 1013.6 |